createdAt,value
2018-12-21T00:01:00.343Z,1008.37
2018-12-21T00:02:09.607Z,1008.34
2018-12-21T00:03:19.503Z,1008.32
2018-12-21T00:04:28.892Z,1008.31
2018-12-21T00:05:37.995Z,1008.29
2018-12-21T00:06:47.317Z,1008.26
2018-12-21T00:07:58.658Z,1008.29
2018-12-21T00:09:08.032Z,1008.29
2018-12-21T00:10:17.662Z,1008.29
2018-12-21T00:11:27.573Z,1008.28
2018-12-21T00:12:37.118Z,1008.21
2018-12-21T00:13:46.740Z,1008.19
2018-12-21T00:14:55.999Z,1008.21
2018-12-21T00:16:05.844Z,1008.17
2018-12-21T00:17:15.140Z,1008.1
2018-12-21T00:18:24.461Z,1008.13
2018-12-21T00:19:33.991Z,1008.08
2018-12-21T00:20:43.931Z,1008.08
2018-12-21T00:21:53.361Z,1008.09
2018-12-21T00:23:02.966Z,1008.11
2018-12-21T00:24:11.930Z,1008.06
2018-12-21T00:25:21.531Z,1008.04
2018-12-21T00:26:30.333Z,1008
2018-12-21T00:27:40.390Z,1007.95
2018-12-21T00:28:49.862Z,1007.99
2018-12-21T00:29:59.839Z,1007.98
2018-12-21T00:31:09.008Z,1007.96
2018-12-21T00:32:18.204Z,1007.96
2018-12-21T00:33:28.025Z,1007.96
2018-12-21T00:34:36.856Z,1007.92
2018-12-21T00:35:46.195Z,1007.9
2018-12-21T00:36:55.357Z,1007.92
2018-12-21T00:38:05.698Z,1007.92
2018-12-21T00:39:14.840Z,1007.88
2018-12-21T00:40:24.359Z,1007.9
2018-12-21T00:41:33.859Z,1007.88
2018-12-21T00:42:43.142Z,1007.83
2018-12-21T00:43:52.992Z,1007.84
2018-12-21T00:45:02.903Z,1007.84
2018-12-21T00:46:12.532Z,1007.9
2018-12-21T00:47:22.498Z,1007.86
2018-12-21T00:48:31.329Z,1007.8
2018-12-21T00:49:40.656Z,1007.8
2018-12-21T00:50:49.684Z,1007.77
2018-12-21T00:51:59.495Z,1007.74
2018-12-21T00:53:08.834Z,1007.72
2018-12-21T00:54:18.105Z,1007.68
2018-12-21T00:55:27.385Z,1007.64
2018-12-21T00:56:36.903Z,1007.59
2018-12-21T00:57:46.025Z,1007.65
2018-12-21T00:58:56.026Z,1007.66
2018-12-21T01:00:05.300Z,1007.59
2018-12-21T01:01:14.433Z,1007.6
2018-12-21T01:02:24.038Z,1007.57
2018-12-21T01:03:33.346Z,1007.56
2018-12-21T01:04:43.221Z,1007.55
2018-12-21T01:05:51.971Z,1007.51
2018-12-21T01:07:01.043Z,1007.54
2018-12-21T01:08:10.127Z,1007.55
2018-12-21T01:09:19.740Z,1007.52
2018-12-21T01:10:29.108Z,1007.55
2018-12-21T01:11:38.739Z,1007.54
2018-12-21T01:12:48.554Z,1007.54
2018-12-21T01:13:57.655Z,1007.55
2018-12-21T01:15:06.707Z,1007.55
2018-12-21T01:16:16.244Z,1007.56
2018-12-21T01:17:25.627Z,1007.55
2018-12-21T01:18:34.945Z,1007.51
2018-12-21T01:19:44.536Z,1007.49
2018-12-21T01:20:53.940Z,1007.47
2018-12-21T01:22:02.864Z,1007.44
2018-12-21T01:23:12.680Z,1007.51
2018-12-21T01:24:22.093Z,1007.46
2018-12-21T01:25:31.684Z,1007.4
2018-12-21T01:26:40.722Z,1007.37
2018-12-21T01:27:50.206Z,1007.34
2018-12-21T01:28:59.485Z,1007.39
2018-12-21T01:30:08.863Z,1007.33
2018-12-21T01:31:18.429Z,1007.31
2018-12-21T01:32:27.525Z,1007.33
2018-12-21T01:33:37.060Z,1007.33
2018-12-21T01:34:46.681Z,1007.28
2018-12-21T01:35:56.241Z,1007.25
2018-12-21T01:37:05.756Z,1007.29
2018-12-21T01:38:15.321Z,1007.26
2018-12-21T01:39:24.909Z,1007.26
2018-12-21T01:40:34.481Z,1007.21
2018-12-21T01:41:44.375Z,1007.22
2018-12-21T01:42:53.500Z,1007.19
2018-12-21T01:44:02.821Z,1007.21
2018-12-21T01:45:12.885Z,1007.22
2018-12-21T01:46:21.919Z,1007.26
2018-12-21T01:47:31.484Z,1007.24
2018-12-21T01:48:40.343Z,1007.2
2018-12-21T01:49:49.393Z,1007.2
2018-12-21T01:50:58.243Z,1007.16
2018-12-21T01:52:07.381Z,1007.12
2018-12-21T01:53:17.186Z,1007.09
2018-12-21T01:54:26.961Z,1007.09
2018-12-21T01:55:36.316Z,1007.08
2018-12-21T01:56:45.934Z,1007.08
2018-12-21T01:57:55.291Z,1007.04
2018-12-21T01:59:05.054Z,1006.98
2018-12-21T02:00:14.196Z,1006.97
2018-12-21T02:01:23.468Z,1006.94
2018-12-21T02:02:32.543Z,1006.91
2018-12-21T02:03:42.089Z,1006.89
2018-12-21T02:04:51.444Z,1006.88
2018-12-21T02:06:00.426Z,1006.87
2018-12-21T02:07:10.036Z,1006.85
2018-12-21T02:08:19.486Z,1006.79
2018-12-21T02:09:28.705Z,1006.76
2018-12-21T02:10:37.655Z,1006.72
2018-12-21T02:11:47.390Z,1006.7
2018-12-21T02:12:57.101Z,1006.68
2018-12-21T02:14:06.072Z,1006.65
2018-12-21T02:15:15.268Z,1006.7
2018-12-21T02:16:24.085Z,1006.58
2018-12-21T02:17:34.192Z,1006.58
2018-12-21T02:18:44.065Z,1006.56
2018-12-21T02:19:53.416Z,1006.52
2018-12-21T02:21:02.639Z,1006.56
2018-12-21T02:22:12.112Z,1006.58
2018-12-21T02:23:21.333Z,1006.56
2018-12-21T02:24:30.915Z,1006.55
2018-12-21T02:25:40.183Z,1006.52
2018-12-21T02:26:49.136Z,1006.49
2018-12-21T02:27:58.155Z,1006.37
2018-12-21T02:29:06.994Z,1006.39
2018-12-21T02:30:16.566Z,1006.36
2018-12-21T02:31:26.577Z,1006.36
2018-12-21T02:32:36.060Z,1006.29
2018-12-21T02:33:45.270Z,1006.31
2018-12-21T02:34:55.036Z,1006.24
2018-12-21T02:36:04.279Z,1006.19
2018-12-21T02:37:14.238Z,1006.19
2018-12-21T02:38:23.951Z,1006.15
2018-12-21T02:39:33.657Z,1006.12
2018-12-21T02:40:42.875Z,1006.09
2018-12-21T02:41:52.610Z,1006.02
2018-12-21T02:43:02.353Z,1006.01
2018-12-21T02:44:11.872Z,1006
2018-12-21T02:45:21.163Z,1005.93
2018-12-21T02:46:30.935Z,1005.96
2018-12-21T02:47:40.734Z,1005.94
2018-12-21T02:48:50.008Z,1005.93
2018-12-21T02:50:00.019Z,1005.88
2018-12-21T02:51:09.432Z,1005.87
2018-12-21T02:52:18.574Z,1005.82
2018-12-21T02:53:28.157Z,1005.83
2018-12-21T02:54:37.991Z,1005.77
2018-12-21T02:55:47.474Z,1005.7
2018-12-21T02:56:56.901Z,1005.66
2018-12-21T02:58:06.510Z,1005.62
2018-12-21T02:59:16.217Z,1005.56
2018-12-21T03:00:25.706Z,1005.63
2018-12-21T03:01:35.704Z,1005.62
2018-12-21T03:02:44.864Z,1005.56
2018-12-21T03:03:54.224Z,1005.55
2018-12-21T03:05:04.585Z,1005.54
2018-12-21T03:06:14.273Z,1005.52
2018-12-21T03:07:23.807Z,1005.51
2018-12-21T03:08:32.973Z,1005.46
2018-12-21T03:09:42.508Z,1005.49
2018-12-21T03:10:51.988Z,1005.5
2018-12-21T03:12:01.618Z,1005.52
2018-12-21T03:13:11.293Z,1005.47
2018-12-21T03:14:21.077Z,1005.46
2018-12-21T03:15:30.702Z,1005.48
2018-12-21T03:16:40.189Z,1005.47
2018-12-21T03:17:49.572Z,1005.37
2018-12-21T03:18:58.974Z,1005.33
2018-12-21T03:20:08.682Z,1005.28
2018-12-21T03:21:18.567Z,1005.25
2018-12-21T03:22:27.719Z,1005.27
2018-12-21T03:23:37.120Z,1005.26
2018-12-21T03:24:46.799Z,1005.21
2018-12-21T03:25:56.675Z,1005.2
2018-12-21T03:27:05.856Z,1005.16
2018-12-21T03:28:15.386Z,1005.15
2018-12-21T03:29:25.001Z,1005.09
2018-12-21T03:30:34.604Z,1005.08
2018-12-21T03:31:44.659Z,1005.02
2018-12-21T03:32:54.981Z,1005.01
2018-12-21T03:34:05.141Z,1004.91
2018-12-21T03:35:15.286Z,1004.91
2018-12-21T03:36:25.588Z,1004.92
2018-12-21T03:37:35.887Z,1004.85
2018-12-21T03:38:45.631Z,1004.85
2018-12-21T03:39:55.283Z,1004.84
2018-12-21T03:41:04.649Z,1004.83
2018-12-21T03:42:14.038Z,1004.86
2018-12-21T03:43:23.648Z,1004.75
2018-12-21T03:44:33.093Z,1004.72
2018-12-21T03:45:43.211Z,1004.73
2018-12-21T03:46:52.737Z,1004.7
2018-12-21T03:48:02.386Z,1004.7
2018-12-21T03:49:12.446Z,1004.64
2018-12-21T03:50:22.131Z,1004.64
2018-12-21T03:51:32.093Z,1004.59
2018-12-21T03:52:41.826Z,1004.58
2018-12-21T03:53:51.460Z,1004.59
2018-12-21T03:55:00.586Z,1004.53
2018-12-21T03:56:10.267Z,1004.55
2018-12-21T03:57:19.959Z,1004.47
2018-12-21T03:58:29.189Z,1004.46
2018-12-21T03:59:39.110Z,1004.44
2018-12-21T04:00:48.618Z,1004.4
2018-12-21T04:01:58.306Z,1004.36
2018-12-21T04:03:07.816Z,1004.33
2018-12-21T04:04:17.234Z,1004.25
2018-12-21T04:05:26.764Z,1004.22
2018-12-21T04:06:36.461Z,1004.15
2018-12-21T04:07:46.027Z,1004.11
2018-12-21T04:08:55.072Z,1004.1
2018-12-21T04:10:04.678Z,1004.04
2018-12-21T04:11:14.235Z,1004
2018-12-21T04:12:23.532Z,1004.01
2018-12-21T04:13:33.473Z,1003.92
2018-12-21T04:14:42.899Z,1003.93
2018-12-21T04:15:52.306Z,1003.88
2018-12-21T04:17:01.906Z,1003.88
2018-12-21T04:18:11.042Z,1003.93
2018-12-21T04:19:20.792Z,1003.85
2018-12-21T04:20:30.103Z,1003.84
2018-12-21T04:21:39.502Z,1003.78
2018-12-21T04:22:49.125Z,1003.74
2018-12-21T04:23:58.460Z,1003.72
2018-12-21T04:25:07.621Z,1003.71
2018-12-21T04:26:17.071Z,1003.67
2018-12-21T04:27:26.216Z,1003.61
2018-12-21T04:28:36.505Z,1003.54
2018-12-21T04:29:46.171Z,1003.53
2018-12-21T04:30:56.155Z,1003.56
2018-12-21T04:32:05.858Z,1003.52
2018-12-21T04:33:15.386Z,1003.44
2018-12-21T04:34:24.475Z,1003.45
2018-12-21T04:35:33.926Z,1003.42
2018-12-21T04:36:43.522Z,1003.38
2018-12-21T04:37:53.194Z,1003.34
2018-12-21T04:39:02.626Z,1003.4
2018-12-21T04:40:12.768Z,1003.41
2018-12-21T04:41:21.953Z,1003.37
2018-12-21T04:42:31.994Z,1003.31
2018-12-21T04:43:41.870Z,1003.29
2018-12-21T04:44:51.740Z,1003.32
2018-12-21T04:46:01.583Z,1003.27
2018-12-21T04:47:11.234Z,1003.24
2018-12-21T04:48:21.205Z,1003.26
2018-12-21T04:49:31.051Z,1003.27
2018-12-21T04:50:40.857Z,1003.27
2018-12-21T04:51:50.291Z,1003.3
2018-12-21T04:52:59.995Z,1003.27
2018-12-21T04:54:09.871Z,1003.25
2018-12-21T04:55:18.784Z,1003.23
2018-12-21T04:56:28.655Z,1003.22
2018-12-21T04:57:38.537Z,1003.13
2018-12-21T04:58:48.190Z,1003.14
2018-12-21T04:59:57.482Z,1003.15
2018-12-21T05:01:06.868Z,1003.11
2018-12-21T05:02:16.774Z,1003.03
2018-12-21T05:03:26.138Z,1003.06
2018-12-21T05:04:35.689Z,1003.03
2018-12-21T05:05:45.367Z,1002.98
2018-12-21T05:06:55.035Z,1002.92
2018-12-21T05:08:12.658Z,1002.83
2018-12-21T05:09:22.395Z,1002.87
2018-12-21T05:10:32.130Z,1002.83
2018-12-21T05:11:42.029Z,1002.81
2018-12-21T05:12:51.339Z,1002.76
2018-12-21T05:14:01.004Z,1002.76
2018-12-21T05:15:13.421Z,1002.65
2018-12-21T05:16:23.154Z,1002.59
2018-12-21T05:17:32.583Z,1002.55
2018-12-21T05:18:42.117Z,1002.58
2018-12-21T05:19:51.508Z,1002.49
2018-12-21T05:21:01.171Z,1002.5
2018-12-21T05:22:10.703Z,1002.42
2018-12-21T05:23:20.213Z,1002.38
2018-12-21T05:24:29.665Z,1002.31
2018-12-21T05:25:39.079Z,1002.3
2018-12-21T05:26:48.794Z,1002.22
2018-12-21T05:27:58.504Z,1002.25
2018-12-21T05:29:07.753Z,1002.19
2018-12-21T05:30:16.807Z,1002.15
2018-12-21T05:31:28.359Z,1002.12
2018-12-21T05:32:37.844Z,1002.02
2018-12-21T05:33:46.894Z,1002.05
2018-12-21T05:34:56.777Z,1002.01
2018-12-21T05:36:06.636Z,1001.93
2018-12-21T05:37:15.928Z,1001.94
2018-12-21T05:38:25.123Z,1001.95
2018-12-21T05:39:34.411Z,1001.94
2018-12-21T05:40:43.860Z,1001.87
2018-12-21T05:41:53.279Z,1001.93
2018-12-21T05:43:03.641Z,1001.9
2018-12-21T05:44:13.586Z,1001.83
2018-12-21T05:45:22.978Z,1001.75
2018-12-21T05:46:32.609Z,1001.68
2018-12-21T05:47:42.617Z,1001.72
2018-12-21T05:48:51.948Z,1001.69
2018-12-21T05:50:01.581Z,1001.63
2018-12-21T05:51:11.214Z,1001.61
2018-12-21T05:52:21.004Z,1001.6
2018-12-21T05:53:30.243Z,1001.51
2018-12-21T05:54:39.562Z,1001.49
2018-12-21T05:55:49.049Z,1001.46
2018-12-21T05:56:58.583Z,1001.34
2018-12-21T05:58:08.365Z,1001.34
2018-12-21T05:59:17.803Z,1001.25
2018-12-21T06:00:27.000Z,1001.23
2018-12-21T06:01:36.458Z,1001.19
2018-12-21T06:02:45.883Z,1001.19
2018-12-21T06:03:55.692Z,1001.13
2018-12-21T06:05:04.858Z,1001.14
2018-12-21T06:06:14.510Z,1001.08
2018-12-21T06:07:24.393Z,1001.05
2018-12-21T06:08:34.481Z,1001.06
2018-12-21T06:09:44.152Z,1001.01
2018-12-21T06:10:53.522Z,1001
2018-12-21T06:12:02.935Z,1001.04
2018-12-21T06:13:12.385Z,1000.97
2018-12-21T06:14:21.699Z,1001
2018-12-21T06:15:31.043Z,1001.02
2018-12-21T06:16:40.287Z,1001.04
2018-12-21T06:17:50.316Z,1000.99
2018-12-21T06:19:00.044Z,1000.96
2018-12-21T06:20:09.141Z,1000.96
2018-12-21T06:21:18.415Z,1000.91
2018-12-21T06:22:27.798Z,1000.92
2018-12-21T06:23:37.541Z,1000.92
2018-12-21T06:24:46.488Z,1000.93
2018-12-21T06:25:55.943Z,1000.9
2018-12-21T06:27:05.112Z,1000.91
2018-12-21T06:28:14.007Z,1000.92
2018-12-21T06:29:23.847Z,1000.91
2018-12-21T06:30:33.299Z,1000.88
2018-12-21T06:31:42.720Z,1000.82
2018-12-21T06:32:51.932Z,1000.71
2018-12-21T06:34:01.172Z,1000.71
2018-12-21T06:35:10.839Z,1000.71
2018-12-21T06:36:20.515Z,1000.71
2018-12-21T06:37:30.353Z,1000.57
2018-12-21T06:38:39.489Z,1000.63
2018-12-21T06:39:48.970Z,1000.56
2018-12-21T06:40:58.387Z,1000.58
2018-12-21T06:42:07.840Z,1000.55
2018-12-21T06:43:17.004Z,1000.52
2018-12-21T06:44:26.465Z,1000.45
2018-12-21T06:45:35.965Z,1000.47
2018-12-21T06:46:45.364Z,1000.4
2018-12-21T06:47:55.001Z,1000.46
2018-12-21T06:49:04.246Z,1000.44
2018-12-21T06:50:13.871Z,1000.4
2018-12-21T06:51:25.421Z,1000.31
2018-12-21T06:52:34.876Z,1000.35
2018-12-21T06:53:44.513Z,1000.28
2018-12-21T06:54:53.958Z,1000.3
2018-12-21T06:56:04.642Z,1000.23
2018-12-21T06:57:13.771Z,1000.23
2018-12-21T06:58:23.410Z,1000.21
2018-12-21T06:59:32.850Z,1000.17
2018-12-21T07:00:42.336Z,1000.16
2018-12-21T07:01:51.427Z,1000.16
2018-12-21T07:03:01.374Z,1000.09
2018-12-21T07:04:19.759Z,1000.08
2018-12-21T07:05:28.703Z,1000.05
2018-12-21T07:06:37.847Z,1000.06
2018-12-21T07:07:47.501Z,1000.06
2018-12-21T07:08:57.091Z,1000.02
2018-12-21T07:10:07.028Z,1000.03
2018-12-21T07:11:16.748Z,999.98
2018-12-21T07:12:26.110Z,1000.03
2018-12-21T07:13:35.474Z,999.99
2018-12-21T07:14:45.018Z,999.97
2018-12-21T07:15:54.364Z,999.9
2018-12-21T07:17:03.715Z,999.94
2018-12-21T07:18:13.732Z,999.91
2018-12-21T07:19:23.882Z,999.89
2018-12-21T07:20:33.354Z,999.92
2018-12-21T07:21:42.475Z,999.95
2018-12-21T07:22:51.985Z,999.89
2018-12-21T07:24:01.179Z,999.9
2018-12-21T07:25:10.676Z,999.84
2018-12-21T07:26:19.780Z,999.83
2018-12-21T07:27:29.586Z,999.82
2018-12-21T07:28:38.626Z,999.77
2018-12-21T07:29:48.184Z,999.73
2018-12-21T07:30:57.313Z,999.66
2018-12-21T07:32:06.979Z,999.62
2018-12-21T07:33:16.367Z,999.7
2018-12-21T07:34:26.045Z,999.61
2018-12-21T07:35:35.737Z,999.53
2018-12-21T07:36:45.259Z,999.51
2018-12-21T07:37:54.810Z,999.43
2018-12-21T07:39:04.737Z,999.44
2018-12-21T07:40:14.044Z,999.43
2018-12-21T07:41:23.333Z,999.46
2018-12-21T07:42:32.831Z,999.39
2018-12-21T07:43:42.553Z,999.42
2018-12-21T07:44:51.866Z,999.35
2018-12-21T07:46:01.814Z,999.36
2018-12-21T07:47:11.744Z,999.31
2018-12-21T07:48:22.310Z,999.3
2018-12-21T07:49:31.635Z,999.3
2018-12-21T07:50:41.658Z,999.23
2018-12-21T07:51:51.377Z,999.24
2018-12-21T07:53:01.446Z,999.2
2018-12-21T07:54:10.980Z,999.24
2018-12-21T07:55:20.795Z,999.12
2018-12-21T07:56:29.934Z,999.14
2018-12-21T07:57:39.844Z,999.05
2018-12-21T07:58:57.007Z,999.06
2018-12-21T08:00:06.621Z,999.02
2018-12-21T08:01:15.806Z,998.96
2018-12-21T08:02:26.058Z,998.95
2018-12-21T08:03:36.023Z,998.92
2018-12-21T08:04:45.642Z,998.92
2018-12-21T08:05:55.577Z,998.78
2018-12-21T08:07:05.326Z,998.77
2018-12-21T08:08:15.359Z,998.74
2018-12-21T08:09:24.776Z,998.68
2018-12-21T08:10:34.433Z,998.64
2018-12-21T08:11:44.683Z,998.55
2018-12-21T08:12:54.690Z,998.52
2018-12-21T08:14:04.188Z,998.44
2018-12-21T08:15:14.094Z,998.39
2018-12-21T08:16:23.386Z,998.35
2018-12-21T08:17:33.432Z,998.32
2018-12-21T08:18:42.995Z,998.24
2018-12-21T08:19:52.356Z,998.15
2018-12-21T08:21:02.456Z,998.12
2018-12-21T08:22:11.885Z,998.02
2018-12-21T08:23:21.315Z,997.91
2018-12-21T08:24:31.288Z,997.87
2018-12-21T08:25:40.975Z,997.89
2018-12-21T08:26:51.062Z,997.73
2018-12-21T08:28:01.246Z,997.75
2018-12-21T08:29:11.092Z,997.76
2018-12-21T08:30:20.965Z,997.73
2018-12-21T08:31:31.382Z,997.57
2018-12-21T08:32:41.132Z,997.78
2018-12-21T08:33:50.451Z,997.93
2018-12-21T08:35:00.008Z,997.79
2018-12-21T08:36:09.759Z,997.58
2018-12-21T08:37:19.135Z,997.6
2018-12-21T08:38:28.995Z,997.73
2018-12-21T08:39:38.723Z,997.76
2018-12-21T08:40:48.538Z,997.78
2018-12-21T08:41:57.775Z,997.77
2018-12-21T08:43:07.356Z,997.71
2018-12-21T08:44:16.823Z,997.67
2018-12-21T08:45:26.006Z,997.68
2018-12-21T08:46:35.732Z,997.7
2018-12-21T08:47:44.937Z,997.62
2018-12-21T08:48:54.944Z,997.66
2018-12-21T08:50:04.436Z,997.63
2018-12-21T08:51:13.962Z,997.56
2018-12-21T08:52:23.659Z,997.54
2018-12-21T08:53:33.405Z,997.49
2018-12-21T08:54:42.831Z,997.46
2018-12-21T08:55:53.287Z,997.41
2018-12-21T08:57:02.804Z,997.38
2018-12-21T08:58:12.427Z,997.42
2018-12-21T08:59:21.777Z,997.41
2018-12-21T09:00:30.931Z,997.36
2018-12-21T09:01:40.815Z,997.33
2018-12-21T09:02:50.117Z,997.22
2018-12-21T09:03:59.863Z,997.28
2018-12-21T09:05:09.534Z,997.29
2018-12-21T09:06:19.146Z,997.24
2018-12-21T09:07:28.884Z,997.19
2018-12-21T09:08:40.002Z,997.14
2018-12-21T09:09:49.144Z,997.14
2018-12-21T09:10:58.346Z,997.18
2018-12-21T09:12:08.088Z,997.18
2018-12-21T09:13:17.225Z,997.14
2018-12-21T09:14:27.037Z,997.08
2018-12-21T09:15:35.987Z,997.07
2018-12-21T09:16:45.183Z,997.02
2018-12-21T09:20:27.229Z,997.1
2018-12-21T09:21:38.174Z,997.06
2018-12-21T09:22:47.600Z,997.11
2018-12-21T09:24:01.047Z,997.09
2018-12-21T09:25:10.975Z,997.06
2018-12-21T09:26:19.947Z,997.09
2018-12-21T09:27:29.625Z,997.04
2018-12-21T09:28:38.817Z,997.02
2018-12-21T09:29:48.002Z,997.05
2018-12-21T09:30:56.941Z,997.02
2018-12-21T09:32:05.879Z,997.01
2018-12-21T09:33:15.320Z,996.94
2018-12-21T09:34:24.756Z,996.85
2018-12-21T09:35:33.993Z,996.82
2018-12-21T09:36:43.437Z,996.93
2018-12-21T09:37:53.132Z,996.84
2018-12-21T09:39:02.896Z,996.9
2018-12-21T09:40:12.346Z,996.84
2018-12-21T09:41:21.642Z,996.79
2018-12-21T09:42:31.581Z,996.78
2018-12-21T09:43:40.789Z,996.83
2018-12-21T09:44:52.556Z,996.82
2018-12-21T09:46:02.542Z,996.83
2018-12-21T09:47:12.031Z,996.82
2018-12-21T09:48:20.976Z,996.7
2018-12-21T09:49:30.671Z,996.65
2018-12-21T09:50:39.361Z,996.69
2018-12-21T09:51:48.669Z,996.69
2018-12-21T09:52:58.367Z,996.66
2018-12-21T09:54:09.954Z,996.58
2018-12-21T09:55:19.954Z,996.52
2018-12-21T09:56:29.419Z,996.54
2018-12-21T09:57:38.969Z,996.54
2018-12-21T09:58:48.682Z,996.56
2018-12-21T09:59:58.367Z,996.43
2018-12-21T10:01:07.545Z,996.5
2018-12-21T10:02:16.758Z,996.54
2018-12-21T10:03:26.446Z,996.47
2018-12-21T10:04:35.873Z,996.41
2018-12-21T10:05:44.838Z,996.39
2018-12-21T10:06:54.277Z,996.41
2018-12-21T10:08:03.468Z,996.37
2018-12-21T10:09:13.158Z,996.33
2018-12-21T10:10:22.638Z,996.36
2018-12-21T10:11:32.077Z,996.31
2018-12-21T10:12:41.254Z,996.26
2018-12-21T10:13:53.911Z,996.34
2018-12-21T10:15:03.592Z,996.37
2018-12-21T10:16:13.032Z,996.34
2018-12-21T10:17:22.962Z,996.29
2018-12-21T10:18:32.271Z,996.29
2018-12-21T10:19:41.520Z,996.29
2018-12-21T10:20:51.223Z,996.24
2018-12-21T10:22:01.169Z,996.3
2018-12-21T10:23:10.479Z,996.27
2018-12-21T10:24:19.984Z,996.3
2018-12-21T10:25:29.179Z,996.29
2018-12-21T10:26:38.864Z,996.26
2018-12-21T10:27:48.300Z,996.3
2018-12-21T10:28:57.982Z,996.24
2018-12-21T10:30:07.160Z,996.27
2018-12-21T10:31:16.354Z,996.21
2018-12-21T10:32:25.612Z,996.27
2018-12-21T10:33:35.095Z,996.23
2018-12-21T10:34:44.624Z,996.24
2018-12-21T10:35:53.799Z,996.24
2018-12-21T10:37:03.491Z,996.23
2018-12-21T10:38:12.741Z,996.22
2018-12-21T10:39:22.759Z,996.2
2018-12-21T10:40:31.953Z,996.21
2018-12-21T10:41:41.654Z,996.15
2018-12-21T10:42:51.119Z,996.13
2018-12-21T10:44:00.064Z,996.18
2018-12-21T10:45:09.279Z,996.17
2018-12-21T10:46:18.481Z,996.15
2018-12-21T10:47:28.206Z,996.17
2018-12-21T10:48:37.554Z,996.11
2018-12-21T10:49:47.051Z,996.16
2018-12-21T10:50:56.292Z,996.08
2018-12-21T10:52:05.481Z,996.04
2018-12-21T10:53:14.417Z,996.1
2018-12-21T10:54:26.863Z,996.05
2018-12-21T10:55:36.626Z,996.1
2018-12-21T10:56:46.063Z,996
2018-12-21T10:57:55.241Z,996.05
2018-12-21T10:59:04.695Z,996.06
2018-12-21T11:00:21.461Z,995.96
2018-12-21T11:01:31.135Z,996.12
2018-12-21T11:02:40.324Z,995.99
2018-12-21T11:03:49.765Z,996.03
2018-12-21T11:04:58.707Z,996.06
2018-12-21T11:06:08.710Z,995.94
2018-12-21T11:07:17.891Z,996.02
2018-12-21T11:08:27.087Z,996
2018-12-21T11:09:36.561Z,995.81
2018-12-21T11:10:46.028Z,995.93
2018-12-21T11:11:55.243Z,995.96
2018-12-21T11:13:05.179Z,995.96
2018-12-21T11:14:14.375Z,995.94
2018-12-21T11:15:23.321Z,995.87
2018-12-21T11:16:32.879Z,995.91
2018-12-21T11:17:43.945Z,996.09
2018-12-21T11:18:53.540Z,995.96
2018-12-21T11:20:02.236Z,996.01
2018-12-21T11:21:11.669Z,995.98
2018-12-21T11:22:20.871Z,995.84
2018-12-21T11:23:30.332Z,995.82
2018-12-21T11:24:39.558Z,995.93
2018-12-21T11:25:48.739Z,995.88
2018-12-21T11:26:58.247Z,995.86
2018-12-21T11:28:07.752Z,995.92
2018-12-21T11:29:25.770Z,995.99
2018-12-21T11:30:35.224Z,995.92
2018-12-21T11:31:44.398Z,995.99
2018-12-21T11:32:54.177Z,995.93
2018-12-21T11:34:04.158Z,996.03
2018-12-21T11:35:13.863Z,996
2018-12-21T11:36:23.052Z,995.98
2018-12-21T11:37:32.370Z,995.93
2018-12-21T11:38:41.838Z,995.91
2018-12-21T11:39:51.294Z,995.99
2018-12-21T11:41:00.481Z,996.1
2018-12-21T11:42:10.177Z,995.97
2018-12-21T11:43:19.604Z,996.03
2018-12-21T11:44:29.540Z,996.05
2018-12-21T11:45:38.734Z,996.04
2018-12-21T11:46:47.919Z,996.05
2018-12-21T11:47:57.393Z,995.94
2018-12-21T11:49:06.333Z,996.06
2018-12-21T11:50:15.763Z,995.96
2018-12-21T11:51:24.707Z,995.99
2018-12-21T11:52:34.153Z,995.95
2018-12-21T11:53:43.349Z,995.93
2018-12-21T11:54:53.041Z,995.95
2018-12-21T11:56:04.305Z,996.02
2018-12-21T11:57:13.811Z,996.02
2018-12-21T11:58:23.026Z,996.12
2018-12-21T11:59:32.049Z,995.95
2018-12-21T12:00:49.455Z,996
2018-12-21T12:01:58.924Z,995.87
2018-12-21T12:03:08.857Z,996.09
2018-12-21T12:04:18.311Z,996.13
2018-12-21T12:05:28.300Z,996.21
2018-12-21T12:06:37.734Z,996.16
2018-12-21T12:07:47.240Z,996.16
2018-12-21T12:08:56.959Z,996.19
2018-12-21T12:10:13.114Z,996.31
2018-12-21T12:11:22.560Z,996.21
2018-12-21T12:12:31.487Z,996.36
2018-12-21T12:13:42.013Z,996.21
2018-12-21T12:14:50.985Z,996.16
2018-12-21T12:16:00.484Z,996.25
2018-12-21T12:17:10.212Z,996.21
2018-12-21T12:18:20.537Z,996.15
2018-12-21T12:19:30.363Z,996.2
2018-12-21T12:20:39.334Z,996.23
2018-12-21T12:21:48.548Z,996.27
2018-12-21T12:22:57.715Z,996.34
2018-12-21T12:24:06.962Z,996.35
2018-12-21T12:25:16.437Z,996.27
2018-12-21T12:26:25.904Z,996.39
2018-12-21T12:27:35.597Z,996.39
2018-12-21T12:28:45.051Z,996.29
2018-12-21T12:29:54.647Z,996.3
2018-12-21T12:31:03.630Z,996.36
2018-12-21T12:32:13.370Z,996.32
2018-12-21T12:33:23.122Z,996.28
2018-12-21T12:34:32.046Z,996.34
2018-12-21T12:35:40.779Z,996.28
2018-12-21T12:36:50.463Z,996.31
2018-12-21T12:38:00.704Z,996.34
2018-12-21T12:39:09.937Z,996.33
2018-12-21T12:40:19.678Z,996.19
2018-12-21T12:41:28.871Z,996.34
2018-12-21T12:42:37.810Z,996.34
2018-12-21T12:43:47.036Z,996.36
2018-12-21T12:44:56.233Z,996.37
2018-12-21T12:46:05.685Z,996.32
2018-12-21T12:47:15.438Z,996.31
2018-12-21T12:48:24.895Z,996.33
2018-12-21T12:49:33.870Z,996.49
2018-12-21T12:50:43.309Z,996.52
2018-12-21T12:51:52.498Z,996.35
2018-12-21T12:53:01.448Z,996.4
2018-12-21T12:54:10.911Z,996.41
2018-12-21T12:55:20.382Z,996.39
2018-12-21T12:56:30.116Z,996.41
2018-12-21T12:57:39.747Z,996.42
2018-12-21T12:58:48.942Z,996.4
2018-12-21T12:59:58.679Z,996.45
2018-12-21T13:01:07.870Z,996.41
2018-12-21T13:02:17.395Z,996.43
2018-12-21T13:03:27.099Z,996.55
2018-12-21T13:04:36.598Z,996.6
2018-12-21T13:05:46.043Z,996.52
2018-12-21T13:06:55.483Z,996.63
2018-12-21T13:08:05.181Z,996.59
2018-12-21T13:09:14.400Z,996.53
2018-12-21T13:10:23.640Z,996.53
2018-12-21T13:11:33.572Z,996.56
2018-12-21T13:12:42.780Z,996.46
2018-12-21T13:13:51.982Z,996.52
2018-12-21T13:15:01.454Z,996.59
2018-12-21T13:16:10.940Z,996.48
2018-12-21T13:17:20.397Z,996.56
2018-12-21T13:18:29.875Z,996.67
2018-12-21T13:19:39.631Z,996.49
2018-12-21T13:20:49.093Z,996.53
2018-12-21T13:21:58.795Z,996.48
2018-12-21T13:23:08.012Z,996.51
2018-12-21T13:24:17.466Z,996.55
2018-12-21T13:25:26.413Z,996.51
2018-12-21T13:26:36.120Z,996.56
2018-12-21T13:27:45.604Z,996.61
2018-12-21T13:28:54.542Z,996.73
2018-12-21T13:30:04.364Z,996.58
2018-12-21T13:31:14.981Z,996.55
2018-12-21T13:32:24.222Z,996.5
2018-12-21T13:33:33.194Z,996.64
2018-12-21T13:34:42.400Z,996.61
2018-12-21T13:35:51.623Z,996.65
2018-12-21T13:37:01.067Z,996.74
2018-12-21T13:38:10.786Z,996.74
2018-12-21T13:39:20.047Z,996.8
2018-12-21T13:40:29.543Z,996.79
2018-12-21T13:41:38.746Z,996.82
2018-12-21T13:42:48.491Z,996.84
2018-12-21T13:43:57.797Z,996.69
2018-12-21T13:45:06.992Z,996.78
2018-12-21T13:46:16.221Z,996.78
2018-12-21T13:47:25.917Z,996.8
2018-12-21T13:48:35.377Z,996.85
2018-12-21T13:49:44.805Z,996.76
2018-12-21T13:50:54.290Z,996.76
2018-12-21T13:52:03.772Z,996.9
2018-12-21T13:53:13.779Z,996.94
2018-12-21T13:54:23.112Z,996.9
2018-12-21T13:55:32.539Z,996.91
2018-12-21T13:56:43.107Z,996.86
2018-12-21T13:57:52.629Z,996.93
2018-12-21T13:59:02.069Z,996.9
2018-12-21T14:00:11.320Z,996.84
2018-12-21T14:01:20.542Z,996.92
2018-12-21T14:02:29.501Z,996.94
2018-12-21T14:03:39.193Z,996.96
2018-12-21T14:04:48.167Z,996.99
2018-12-21T14:05:57.365Z,997.06
2018-12-21T14:07:06.876Z,997.01
2018-12-21T14:08:15.830Z,997.14
2018-12-21T14:09:26.438Z,997.03
2018-12-21T14:10:36.247Z,997.17
2018-12-21T14:11:45.475Z,997.15
2018-12-21T14:12:54.682Z,997.13
2018-12-21T14:14:03.876Z,997.27
2018-12-21T14:15:13.630Z,997.26
2018-12-21T14:16:22.898Z,997.2
2018-12-21T14:17:32.344Z,997.24
2018-12-21T14:18:41.531Z,997.26
2018-12-21T14:19:50.761Z,997.3
2018-12-21T14:21:00.945Z,997.33